Time;durP1;ratioP1;P1;durP2;ratioP2;P2;SDS_P1;SDS_P2;PMS_P1;PMS_P2;Temp;Humidity;BMP_temperature;BMP_pressure;BME280_temperature;BME280_humidity;BME280_pressure;Samples;Min_cycle;Max_cycle;Signal;HPM_P1;HPM_P2
2022/02/23 00:00:24;;;;;;;6.72;3.10;;;9.90;99.90;;;;;;5113224;27;20226;-66
2022/02/23 00:02:51;;;;;;;9.23;3.65;;;10.00;99.90;;;;;;5114856;28;20306;-66
2022/02/23 00:18:43;;;;;;;15.88;6.05;;;9.80;99.90;;;;;;5101151;27;21043;-65
2022/02/23 00:21:10;;;;;;;9.00;5.38;;;9.80;99.90;;;;;;5112689;28;20231;-65
2022/02/23 00:23:37;;;;;;;14.27;4.10;;;9.70;99.90;;;;;;5102023;28;20223;-65
2022/02/23 00:26:03;;;;;;;15.40;8.85;;;9.70;99.90;;;;;;5100759;28;20224;-66
2022/02/23 00:28:32;;;;;;;12.57;6.32;;;9.70;99.90;;;;;;5104842;28;20223;-66
2022/02/23 00:30:58;;;;;;;13.70;5.00;;;9.60;99.90;;;;;;5107621;27;20554;-66
2022/02/23 00:33:25;;;;;;;11.15;4.05;;;9.50;99.90;;;;;;5103061;28;20219;-66
2022/02/23 00:35:52;;;;;;;8.10;4.15;;;9.50;99.90;;;;;;5101535;28;20207;-66
2022/02/23 00:38:19;;;;;;;13.20;4.55;;;9.60;99.90;;;;;;5107583;28;20245;-65
2022/02/23 00:40:46;;;;;;;17.58;6.18;;;9.50;99.90;;;;;;5113523;27;20230;-65
2022/02/23 00:43:13;;;;;;;9.90;4.18;;;9.60;99.90;;;;;;5113904;28;20246;-66
2022/02/23 00:45:41;;;;;;;8.32;5.47;;;9.50;99.90;;;;;;5099482;28;20688;-66
2022/02/23 00:48:07;;;;;;;6.75;3.55;;;9.40;99.90;;;;;;5103095;28;20249;-66
2022/02/23 00:50:34;;;;;;;12.43;6.90;;;9.30;99.90;;;;;;5106494;28;20309;-65
2022/02/23 00:53:01;;;;;;;4.03;1.95;;;9.20;99.90;;;;;;5106425;28;20225;-66
2022/02/23 00:55:28;;;;;;;9.75;2.40;;;9.10;99.90;;;;;;5110244;27;20214;-66
2022/02/23 00:57:55;;;;;;;5.40;3.10;;;9.00;99.90;;;;;;5122215;27;20229;-65
2022/02/23 01:00:22;;;;;;;8.60;2.92;;;8.90;99.90;;;;;;5116796;27;20226;-66
2022/02/23 01:02:50;;;;;;;5.32;3.17;;;8.90;99.90;;;;;;5101482;28;20216;-65
2022/02/23 01:05:17;;;;;;;8.85;3.63;;;8.90;99.90;;;;;;5119269;27;20226;-65
2022/02/23 01:07:44;;;;;;;5.13;3.40;;;8.80;99.90;;;;;;5100890;28;20235;-66
2022/02/23 01:10:11;;;;;;;14.65;5.20;;;8.80;99.90;;;;;;5106515;28;20247;-66
2022/02/23 01:12:38;;;;;;;9.18;3.70;;;8.80;99.90;;;;;;5108141;27;20594;-65
2022/02/23 01:15:06;;;;;;;7.57;3.08;;;8.70;99.90;;;;;;5113523;27;20214;-66
2022/02/23 01:17:33;;;;;;;8.75;3.17;;;8.80;99.90;;;;;;5112878;27;20241;-66
2022/02/23 01:20:02;;;;;;;4.53;2.50;;;8.70;99.90;;;;;;5099281;28;20388;-66
2022/02/23 01:22:29;;;;;;;9.02;2.67;;;8.70;99.90;;;;;;5102155;28;20224;-67
2022/02/23 01:24:56;;;;;;;7.50;2.72;;;8.70;99.90;;;;;;5106310;28;20224;-66
2022/02/23 01:27:23;;;;;;;12.15;3.40;;;8.70;99.90;;;;;;5103765;28;20227;-66
2022/02/23 01:29:52;;;;;;;14.57;2.97;;;8.70;99.90;;;;;;5111751;27;20226;-66
2022/02/23 01:32:19;;;;;;;8.75;3.90;;;8.70;99.90;;;;;;5112892;27;20269;-66
2022/02/23 01:34:46;;;;;;;11.35;5.07;;;8.70;99.90;;;;;;5112500;27;20299;-66
2022/02/23 01:37:17;;;;;;;21.85;7.72;;;8.80;99.90;;;;;;5109564;27;20256;-67
2022/02/23 01:39:44;;;;;;;11.45;4.05;;;8.70;99.90;;;;;;5112469;28;20257;-66
2022/02/23 01:42:12;;;;;;;15.23;5.45;;;8.70;99.90;;;;;;5112565;27;20223;-66
2022/02/23 01:44:38;;;;;;;16.42;5.50;;;8.70;99.90;;;;;;5106464;28;20285;-66
2022/02/23 01:47:06;;;;;;;12.73;4.47;;;8.70;99.90;;;;;;5112149;27;20697;-66
2022/02/23 01:49:33;;;;;;;13.15;4.88;;;8.70;99.90;;;;;;5112214;28;20229;-66
2022/02/23 01:52:00;;;;;;;24.10;6.07;;;8.70;99.90;;;;;;5099232;28;20224;-66
2022/02/23 01:54:28;;;;;;;14.35;5.63;;;8.70;99.90;;;;;;5111713;28;20268;-66
2022/02/23 01:56:55;;;;;;;14.60;6.45;;;8.80;99.90;;;;;;5103200;27;21086;-66
2022/02/23 01:59:22;;;;;;;12.07;4.20;;;8.80;99.90;;;;;;5112025;28;20309;-66
2022/02/23 02:01:52;;;;;;;17.58;4.30;;;8.80;99.90;;;;;;5111528;27;20222;-66
2022/02/23 02:04:21;;;;;;;17.40;4.70;;;8.80;99.90;;;;;;5110000;28;20255;-66
2022/02/23 02:06:48;;;;;;;19.00;5.32;;;8.70;99.90;;;;;;5112268;27;20226;-66
2022/02/23 02:09:15;;;;;;;16.45;4.47;;;8.80;99.90;;;;;;5104876;28;20235;-67
2022/02/23 02:11:43;;;;;;;18.13;5.00;;;8.80;99.90;;;;;;5108907;27;20233;-65
2022/02/23 02:14:10;;;;;;;12.60;5.05;;;8.80;99.90;;;;;;5107549;27;20230;-66
2022/02/23 02:16:38;;;;;;;12.38;4.93;;;8.90;99.90;;;;;;5116272;27;20254;-65
2022/02/23 02:19:06;;;;;;;10.10;5.10;;;8.90;99.90;;;;;;5107147;27;20219;-66
2022/02/23 02:21:53;;;;;;;14.75;5.00;;;8.90;99.90;;;;;;5109332;28;20696;-66
2022/02/23 02:24:20;;;;;;;13.65;7.10;;;9.00;99.90;;;;;;5109444;28;20230;-67
2022/02/23 02:26:47;;;;;;;15.50;4.40;;;8.90;99.90;;;;;;5102465;28;20219;-67
2022/02/23 02:29:14;;;;;;;14.60;5.30;;;8.90;99.90;;;;;;5103121;28;20223;-67
2022/02/23 02:31:41;;;;;;;15.13;5.40;;;8.90;99.90;;;;;;5118201;27;20230;-67
2022/02/23 02:34:08;;;;;;;13.73;4.03;;;9.00;99.90;;;;;;5102166;28;20228;-66
2022/02/23 02:36:35;;;;;;;11.40;4.60;;;8.90;99.90;;;;;;5115580;27;20563;-67
2022/02/23 02:39:04;;;;;;;17.38;4.00;;;8.90;99.90;;;;;;5116068;27;20227;-67
2022/02/23 02:41:31;;;;;;;22.40;5.00;;;9.00;99.90;;;;;;5116257;27;20258;-66
2022/02/23 02:43:58;;;;;;;16.40;5.28;;;9.00;99.90;;;;;;5115842;27;20673;-66
2022/02/23 02:46:25;;;;;;;12.68;4.40;;;9.00;99.90;;;;;;5108174;28;20235;-66
2022/02/23 02:48:51;;;;;;;16.45;5.32;;;9.00;99.90;;;;;;5108945;27;20242;-67
2022/02/23 02:51:18;;;;;;;14.38;5.10;;;9.00;99.90;;;;;;5111901;27;20468;-66
2022/02/23 02:53:45;;;;;;;19.58;8.18;;;9.00;99.90;;;;;;5114076;28;20227;-67
2022/02/23 02:56:13;;;;;;;18.63;5.63;;;8.90;99.90;;;;;;5109130;27;20561;-66
2022/02/23 02:58:40;;;;;;;14.40;4.78;;;9.00;99.90;;;;;;5111978;27;20319;-66
2022/02/23 03:01:07;;;;;;;13.27;3.70;;;9.00;99.90;;;;;;5115735;27;20231;-66
2022/02/23 03:03:34;;;;;;;13.60;3.95;;;9.00;99.90;;;;;;5105542;28;20219;-66
2022/02/23 03:06:01;;;;;;;20.27;4.30;;;9.00;99.90;;;;;;5115760;28;20930;-66
2022/02/23 03:08:28;;;;;;;11.02;4.38;;;9.10;99.90;;;;;;5102033;28;20731;-66
2022/02/23 03:10:55;;;;;;;15.52;4.93;;;9.10;99.90;;;;;;5115448;27;20219;-66
2022/02/23 03:13:23;;;;;;;12.88;3.67;;;9.00;99.90;;;;;;5104080;28;20227;-66
2022/02/23 03:15:50;;;;;;;11.63;3.97;;;9.00;99.90;;;;;;5115127;27;20223;-66
2022/02/23 03:18:17;;;;;;;16.75;5.13;;;9.10;99.90;;;;;;5115550;27;20223;-67
2022/02/23 03:20:44;;;;;;;14.20;3.75;;;9.00;99.90;;;;;;5114288;28;20219;-65
2022/02/23 03:23:11;;;;;;;16.50;5.38;;;9.10;99.90;;;;;;5101816;28;20230;-66
2022/02/23 03:25:38;;;;;;;19.38;8.02;;;9.00;99.90;;;;;;5101969;28;20302;-65
2022/02/23 03:28:05;;;;;;;14.45;5.65;;;9.00;99.90;;;;;;5115032;27;21008;-66
2022/02/23 03:30:38;;;;;;;13.68;4.72;;;9.10;99.90;;;;;;5113954;27;20219;-66
2022/02/23 03:33:05;;;;;;;15.07;5.40;;;9.10;99.90;;;;;;5104038;28;20573;-66
2022/02/23 03:35:32;;;;;;;16.80;5.30;;;9.10;99.90;;;;;;5101985;28;20226;-67
2022/02/23 03:37:59;;;;;;;14.13;4.85;;;9.10;99.90;;;;;;5114294;27;20281;-67
2022/02/23 03:40:27;;;;;;;17.80;6.32;;;9.00;99.90;;;;;;5114943;27;20700;-66
2022/02/23 03:42:54;;;;;;;13.43;4.55;;;9.00;99.90;;;;;;5114666;28;20219;-67
2022/02/23 03:45:21;;;;;;;9.52;3.95;;;9.00;99.90;;;;;;5101101;28;20222;-67
2022/02/23 03:47:49;;;;;;;10.63;3.28;;;9.00;99.90;;;;;;5104605;27;20544;-66
2022/02/23 03:50:16;;;;;;;10.57;3.17;;;8.90;99.90;;;;;;5108217;28;20243;-66
2022/02/23 03:52:43;;;;;;;17.27;6.45;;;9.00;99.90;;;;;;5104627;27;20215;-66
2022/02/23 03:55:11;;;;;;;10.70;3.95;;;9.00;99.90;;;;;;5110895;27;20227;-66
2022/02/23 03:57:38;;;;;;;24.15;12.25;;;9.00;99.90;;;;;;5099890;28;20222;-66
2022/02/23 04:00:06;;;;;;;8.27;3.88;;;9.00;99.90;;;;;;5111205;27;20238;-66
2022/02/23 04:02:33;;;;;;;11.05;4.55;;;9.00;99.90;;;;;;5113880;27;20541;-67
2022/02/23 04:05:02;;;;;;;18.17;4.30;;;9.00;99.90;;;;;;5113232;27;20211;-67
2022/02/23 04:07:29;;;;;;;12.80;5.32;;;8.80;99.90;;;;;;5113901;28;20234;-66
2022/02/23 04:09:56;;;;;;;9.07;4.10;;;8.90;99.90;;;;;;5113459;27;20214;-66
2022/02/23 04:12:24;;;;;;;16.75;7.03;;;8.90;99.90;;;;;;5113758;27;20218;-65
2022/02/23 04:14:51;;;;;;;10.07;3.45;;;8.80;99.90;;;;;;5113447;27;20222;-65
2022/02/23 04:17:17;;;;;;;9.15;4.13;;;8.80;99.90;;;;;;5113992;27;20223;-66
2022/02/23 04:19:44;;;;;;;13.90;4.32;;;8.80;99.90;;;;;;5112370;27;20557;-66
2022/02/23 04:22:13;;;;;;;7.22;3.15;;;8.80;99.90;;;;;;5112676;27;20235;-67
2022/02/23 04:24:39;;;;;;;6.75;2.88;;;8.70;99.90;;;;;;5112539;27;20221;-66
2022/02/23 04:27:06;;;;;;;9.52;3.55;;;8.70;99.90;;;;;;5112056;27;20214;-67
2022/02/23 04:29:33;;;;;;;7.28;2.45;;;8.70;99.90;;;;;;5112554;27;20215;-67
2022/02/23 04:32:00;;;;;;;3.42;1.75;;;8.70;99.90;;;;;;5111421;27;20230;-66
2022/02/23 04:34:28;;;;;;;4.80;2.17;;;8.70;99.90;;;;;;5101953;27;20223;-66
2022/02/23 04:36:55;;;;;;;6.72;2.85;;;8.70;99.90;;;;;;5101562;27;20219;-67
2022/02/23 04:39:23;;;;;;;8.30;2.65;;;8.70;99.90;;;;;;5114289;27;20558;-66
2022/02/23 04:41:50;;;;;;;5.40;2.35;;;8.70;99.90;;;;;;5113664;27;20219;-66
2022/02/23 04:44:16;;;;;;;5.78;2.25;;;8.70;99.90;;;;;;5114205;27;20231;-66
2022/02/23 04:46:43;;;;;;;8.65;3.50;;;8.60;99.90;;;;;;5114044;27;20215;-66
2022/02/23 04:49:10;;;;;;;10.77;3.75;;;8.60;99.90;;;;;;5112959;27;20982;-66
2022/02/23 04:51:38;;;;;;;11.05;3.33;;;8.60;99.90;;;;;;5113938;27;20238;-66
2022/02/23 04:54:05;;;;;;;9.80;3.72;;;8.50;99.90;;;;;;5113362;27;20238;-66
2022/02/23 04:56:33;;;;;;;8.00;3.60;;;8.60;99.90;;;;;;5113589;27;20234;-67
2022/02/23 04:59:00;;;;;;;10.30;3.80;;;8.60;99.90;;;;;;5113271;27;20227;-66
2022/02/23 05:01:27;;;;;;;11.38;5.78;;;8.50;99.90;;;;;;5113459;27;20227;-66
2022/02/23 05:03:54;;;;;;;18.98;4.68;;;8.50;99.90;;;;;;5113486;27;20211;-66
2022/02/23 05:06:21;;;;;;;13.98;4.53;;;8.50;99.90;;;;;;5113654;27;20219;-67
2022/02/23 05:08:47;;;;;;;16.98;5.10;;;8.60;99.90;;;;;;5113119;27;20691;-66
2022/02/23 05:11:14;;;;;;;16.70;5.07;;;8.60;99.90;;;;;;5113697;27;20245;-66
2022/02/23 05:13:42;;;;;;;10.25;3.83;;;8.60;99.90;;;;;;5113403;27;20211;-66
2022/02/23 05:16:09;;;;;;;12.88;5.28;;;8.60;99.90;;;;;;5113040;27;20215;-66
2022/02/23 05:18:36;;;;;;;9.75;4.47;;;8.60;99.90;;;;;;5113601;27;20223;-66
2022/02/23 05:21:03;;;;;;;14.43;4.05;;;8.60;99.90;;;;;;5112733;27;20223;-66
2022/02/23 05:23:31;;;;;;;9.18;3.95;;;8.60;99.90;;;;;;5113263;27;20230;-66
2022/02/23 05:25:59;;;;;;;22.58;4.68;;;8.60;99.90;;;;;;5112968;27;20223;-66
2022/02/23 05:28:26;;;;;;;15.48;5.25;;;8.60;99.90;;;;;;5113402;27;20227;-66
2022/02/23 05:30:55;;;;;;;19.40;4.68;;;8.60;99.90;;;;;;5112587;27;20568;-66
2022/02/23 05:33:22;;;;;;;19.90;5.50;;;8.60;99.90;;;;;;5113379;27;20238;-66
2022/02/23 05:35:48;;;;;;;15.20;4.30;;;8.50;99.90;;;;;;5113161;27;20223;-66
2022/02/23 05:38:15;;;;;;;13.40;3.72;;;8.50;99.90;;;;;;5112867;27;20655;-66
2022/02/23 05:40:42;;;;;;;14.88;3.90;;;8.60;99.90;;;;;;5113196;27;20242;-67
2022/02/23 05:43:09;;;;;;;12.63;4.95;;;8.60;99.90;;;;;;5112518;27;20227;-66
2022/02/23 05:45:36;;;;;;;13.70;5.25;;;8.60;99.90;;;;;;5112894;27;20215;-66
2022/02/23 05:48:04;;;;;;;13.52;6.95;;;8.60;99.90;;;;;;5112628;27;20223;-67
2022/02/23 05:50:31;;;;;;;14.88;5.80;;;8.60;99.90;;;;;;5112898;27;20233;-66
2022/02/23 05:52:58;;;;;;;16.45;5.93;;;8.60;99.90;;;;;;5112497;27;20718;-66
2022/02/23 05:55:25;;;;;;;9.38;3.95;;;8.50;99.90;;;;;;5113023;27;20246;-66
2022/02/23 05:57:52;;;;;;;16.67;4.45;;;8.60;99.90;;;;;;5112420;27;20310;-66
2022/02/23 06:00:19;;;;;;;11.82;4.18;;;8.60;99.90;;;;;;5112714;27;20215;-66
2022/02/23 06:02:46;;;;;;;9.18;4.55;;;8.60;99.90;;;;;;5112759;27;20575;-66
2022/02/23 06:05:14;;;;;;;10.02;4.07;;;8.60;99.90;;;;;;5112333;27;20227;-66
2022/02/23 06:07:41;;;;;;;12.52;3.72;;;8.60;99.90;;;;;;5112916;27;20587;-66
2022/02/23 06:10:09;;;;;;;8.48;3.38;;;8.60;99.90;;;;;;5112271;27;20227;-65
2022/02/23 06:12:35;;;;;;;15.05;5.05;;;8.70;99.90;;;;;;5112739;27;20233;-66
2022/02/23 06:15:02;;;;;;;14.50;4.20;;;8.70;99.90;;;;;;5112468;27;20223;-66
2022/02/23 06:17:29;;;;;;;9.40;3.40;;;8.70;99.90;;;;;;5112678;27;20214;-66
2022/02/23 06:19:56;;;;;;;11.63;3.95;;;8.70;99.90;;;;;;5112125;27;20230;-66
2022/02/23 06:22:24;;;;;;;14.60;5.05;;;8.70;99.90;;;;;;5112684;27;20234;-66
2022/02/23 06:24:51;;;;;;;12.05;4.30;;;8.70;99.90;;;;;;5112588;27;20534;-66
2022/02/23 06:27:18;;;;;;;9.32;3.15;;;8.80;99.90;;;;;;5112377;27;20219;-66
2022/02/23 06:29:45;;;;;;;11.93;3.47;;;8.80;99.90;;;;;;5112633;27;20701;-66
2022/02/23 06:32:12;;;;;;;16.75;5.22;;;8.80;99.90;;;;;;5112009;27;20239;-65
2022/02/23 06:34:39;;;;;;;15.35;3.13;;;8.80;99.90;;;;;;5112720;27;20223;-65
2022/02/23 06:37:06;;;;;;;20.63;4.30;;;8.80;99.90;;;;;;5112125;27;20231;-66
2022/02/23 06:39:37;;;;;;;13.18;3.75;;;8.80;99.90;;;;;;5112396;27;20219;-67
2022/02/23 06:42:05;;;;;;;10.90;3.88;;;8.80;99.90;;;;;;5112017;27;20250;-66
2022/02/23 06:44:33;;;;;;;15.70;5.43;;;8.90;99.90;;;;;;5112572;27;20683;-66
2022/02/23 06:47:01;;;;;;;16.33;4.70;;;8.80;99.90;;;;;;5112077;27;20226;-66
2022/02/23 06:49:28;;;;;;;19.27;6.32;;;8.80;99.90;;;;;;5112691;27;20222;-66
2022/02/23 06:51:58;;;;;;;19.25;5.93;;;8.80;99.90;;;;;;5112461;27;20223;-66
2022/02/23 06:54:25;;;;;;;18.33;7.97;;;8.80;99.90;;;;;;5112088;27;20223;-66
2022/02/23 06:56:54;;;;;;;13.55;5.97;;;8.80;99.90;;;;;;5112770;27;20685;-66
2022/02/23 06:59:21;;;;;;;15.05;5.68;;;8.80;99.90;;;;;;5115593;27;20225;-66
2022/02/23 07:01:48;;;;;;;14.50;4.43;;;8.70;99.90;;;;;;5115489;27;20250;-66
2022/02/23 07:04:18;;;;;;;14.82;4.32;;;8.70;99.90;;;;;;5115777;27;20223;-66
2022/02/23 07:06:45;;;;;;;12.45;4.60;;;8.70;99.90;;;;;;5116106;27;20225;-66
2022/02/23 07:09:12;;;;;;;13.55;4.05;;;8.80;99.90;;;;;;5115506;27;20219;-66
2022/02/23 07:11:39;;;;;;;17.58;5.07;;;8.80;99.90;;;;;;5116000;27;20230;-67
2022/02/23 07:14:09;;;;;;;12.48;6.55;;;8.80;99.90;;;;;;5115290;27;20219;-65
2022/02/23 07:16:37;;;;;;;17.88;5.65;;;8.80;99.90;;;;;;5115914;27;20246;-66
2022/02/23 07:19:04;;;;;;;12.13;4.07;;;8.80;99.90;;;;;;5115473;27;20751;-66
2022/02/23 07:21:31;;;;;;;9.57;4.60;;;8.80;99.90;;;;;;5115542;27;20250;-65
2022/02/23 07:23:58;;;;;;;11.20;3.92;;;8.80;99.90;;;;;;5115650;27;20588;-66
2022/02/23 07:26:25;;;;;;;17.63;5.28;;;8.80;99.90;;;;;;5115289;27;20302;-66
2022/02/23 07:28:52;;;;;;;9.57;3.63;;;8.80;99.90;;;;;;5115493;27;20708;-66
2022/02/23 07:31:21;;;;;;;22.70;6.07;;;8.90;99.90;;;;;;5114924;27;20237;-66
2022/02/23 07:33:48;;;;;;;13.15;4.47;;;8.90;99.90;;;;;;5115626;27;20219;-66
2022/02/23 07:36:16;;;;;;;12.68;4.90;;;8.90;99.90;;;;;;5115034;27;20572;-66
2022/02/23 07:38:47;;;;;;;11.27;4.30;;;9.00;99.90;;;;;;5115375;27;20636;-66
2022/02/23 07:41:21;;;;;;;13.30;4.35;;;8.90;99.90;;;;;;5115016;27;20318;-66
2022/02/23 07:43:48;;;;;;;8.15;3.95;;;9.00;99.90;;;;;;5115517;27;20234;-66
2022/02/23 07:46:15;;;;;;;20.95;5.25;;;9.00;99.90;;;;;;5114799;27;20249;-66
2022/02/23 07:48:44;;;;;;;13.13;4.03;;;9.00;99.90;;;;;;5115428;27;20556;-66
2022/02/23 07:51:11;;;;;;;12.85;4.13;;;9.00;99.90;;;;;;5114809;27;20596;-66
2022/02/23 07:53:38;;;;;;;15.23;4.03;;;9.00;99.90;;;;;;5115214;27;20233;-66
2022/02/23 07:56:05;;;;;;;14.88;3.40;;;9.10;99.90;;;;;;5114789;27;20215;-66
2022/02/23 07:58:32;;;;;;;8.50;3.45;;;9.10;99.90;;;;;;5115240;27;20227;-66
2022/02/23 08:00:59;;;;;;;11.30;4.38;;;9.10;99.90;;;;;;5114824;27;20219;-66
2022/02/23 08:03:26;;;;;;;13.65;4.70;;;9.10;99.90;;;;;;5114555;27;20234;-66
2022/02/23 08:05:55;;;;;;;8.18;3.60;;;9.20;99.90;;;;;;5114847;27;20211;-67
2022/02/23 08:08:22;;;;;;;6.75;3.35;;;9.20;99.90;;;;;;5113925;27;20231;-66
2022/02/23 08:10:49;;;;;;;16.58;4.60;;;9.30;99.90;;;;;;5114745;27;20219;-66
2022/02/23 08:13:16;;;;;;;15.23;4.70;;;9.30;99.90;;;;;;5114360;27;20551;-66
2022/02/23 08:21:18;;;;;;;11.38;4.03;;;9.50;99.90;;;;;;5114063;27;20238;-66
2022/02/23 08:23:46;;;;;;;16.95;6.70;;;9.60;99.90;;;;;;5114587;27;20226;-66
2022/02/23 08:26:13;;;;;;;19.40;6.20;;;9.60;99.90;;;;;;5114064;27;20219;-66
2022/02/23 08:28:40;;;;;;;15.20;4.30;;;9.70;99.90;;;;;;5114385;27;20222;-66
2022/02/23 08:31:07;;;;;;;9.68;4.13;;;9.70;99.90;;;;;;5113976;27;20302;-66
2022/02/23 08:33:34;;;;;;;11.27;3.00;;;9.80;99.90;;;;;;5114420;27;20218;-66
2022/02/23 08:36:01;;;;;;;14.68;4.50;;;9.80;99.90;;;;;;5114238;27;20223;-66
2022/02/23 08:38:29;;;;;;;7.72;4.53;;;9.90;99.90;;;;;;5113826;27;20219;-66
2022/02/23 08:40:56;;;;;;;15.18;4.88;;;9.90;99.90;;;;;;5114148;27;20243;-66
2022/02/23 08:43:23;;;;;;;13.32;3.78;;;10.00;99.90;;;;;;5113585;27;20561;-66
2022/02/23 08:45:50;;;;;;;7.32;3.50;;;10.00;99.90;;;;;;5114111;27;20219;-66
2022/02/23 08:48:17;;;;;;;9.07;3.50;;;10.00;99.90;;;;;;5113643;27;20234;-66
2022/02/23 08:50:43;;;;;;;12.23;3.45;;;10.00;99.90;;;;;;5114189;27;20227;-66
2022/02/23 08:53:11;;;;;;;8.75;4.15;;;9.90;99.90;;;;;;5113581;27;20584;-66
2022/02/23 08:55:39;;;;;;;14.52;4.43;;;9.90;99.90;;;;;;5113966;27;20218;-66
2022/02/23 08:58:06;;;;;;;10.40;4.32;;;9.90;99.90;;;;;;5113869;27;20223;-66
2022/02/23 09:00:32;;;;;;;9.40;3.28;;;9.90;99.90;;;;;;5112916;27;20310;-66
2022/02/23 09:02:59;;;;;;;9.45;2.95;;;10.00;99.90;;;;;;5113672;27;20238;-66
2022/02/23 09:05:26;;;;;;;13.45;3.65;;;10.00;99.90;;;;;;5113408;27;20546;-66
2022/02/23 09:07:53;;;;;;;13.30;5.35;;;10.00;99.90;;;;;;5113568;27;20219;-65
2022/02/23 09:10:20;;;;;;;10.18;4.13;;;10.00;99.90;;;;;;5113010;27;20227;-66
2022/02/23 09:12:48;;;;;;;13.88;5.55;;;10.00;99.90;;;;;;5113637;27;20219;-65
2022/02/23 09:15:17;;;;;;;9.48;4.18;;;10.00;99.90;;;;;;5113188;27;20314;-65
2022/02/23 09:17:45;;;;;;;17.52;7.88;;;10.00;99.90;;;;;;5113582;27;20230;-65
2022/02/23 09:20:14;;;;;;;13.27;5.95;;;10.00;99.90;;;;;;5112021;27;20219;-65
2022/02/23 09:22:41;;;;;;;17.55;6.75;;;10.00;99.80;;;;;;5113328;27;20222;-66
2022/02/23 09:25:08;;;;;;;12.32;4.63;;;10.10;99.90;;;;;;5113415;27;20565;-66
2022/02/23 09:27:35;;;;;;;10.63;4.38;;;10.20;99.90;;;;;;5113148;27;20223;-66
2022/02/23 09:30:05;;;;;;;10.93;3.85;;;10.30;99.80;;;;;;5113205;27;20218;-66
2022/02/23 09:32:32;;;;;;;15.07;5.30;;;10.30;99.70;;;;;;5112840;27;20219;-65
2022/02/23 09:34:59;;;;;;;10.93;3.80;;;10.50;99.60;;;;;;5113281;27;20702;-65
2022/02/23 09:37:26;;;;;;;10.55;3.97;;;10.50;99.00;;;;;;5112575;27;20304;-65
2022/02/23 09:39:53;;;;;;;14.10;3.80;;;10.50;98.90;;;;;;5112991;27;20226;-65
2022/02/23 09:42:20;;;;;;;13.90;4.13;;;10.50;98.90;;;;;;5112730;27;20223;-65
2022/02/23 09:44:47;;;;;;;8.60;3.10;;;10.50;98.60;;;;;;5113100;27;20215;-65
2022/02/23 09:47:16;;;;;;;12.88;3.70;;;10.50;98.80;;;;;;5112975;27;20269;-65
2022/02/23 09:49:44;;;;;;;13.30;4.28;;;10.60;98.50;;;;;;5113362;27;20297;-65
2022/02/23 09:52:12;;;;;;;10.82;3.95;;;10.60;98.40;;;;;;5113062;27;20223;-66
2022/02/23 09:54:38;;;;;;;10.27;3.70;;;10.70;98.50;;;;;;5112886;27;20997;-65
2022/02/23 09:57:06;;;;;;;13.25;3.42;;;10.70;98.10;;;;;;5113320;27;20233;-66
2022/02/23 09:59:33;;;;;;;7.88;3.75;;;10.80;98.10;;;;;;5112510;27;20223;-67
2022/02/23 10:02:02;;;;;;;9.68;3.22;;;10.70;97.50;;;;;;5112875;27;20292;-66
2022/02/23 10:04:30;;;;;;;15.13;4.38;;;10.70;97.50;;;;;;5112593;27;20628;-66
2022/02/23 10:07:04;;;;;;;16.27;4.78;;;10.70;97.50;;;;;;5112915;27;20220;-68
2022/02/23 10:09:41;;;;;;;12.05;4.00;;;10.70;97.50;;;;;;5112410;27;20219;-66
2022/02/23 10:12:09;;;;;;;13.88;3.40;;;10.60;97.30;;;;;;5112869;27;20227;-65
2022/02/23 10:14:36;;;;;;;7.93;3.00;;;10.60;97.40;;;;;;5112421;27;20231;-66
2022/02/23 10:17:03;;;;;;;11.65;3.55;;;10.60;97.30;;;;;;5112805;27;20560;-65
2022/02/23 10:19:33;;;;;;;10.75;4.35;;;10.60;97.30;;;;;;5112385;27;20225;-66
2022/02/23 10:22:02;;;;;;;11.60;4.78;;;10.70;97.50;;;;;;5112681;27;20223;-66
2022/02/23 10:24:31;;;;;;;13.90;5.05;;;10.60;96.50;;;;;;5112150;27;20222;-65
2022/02/23 10:27:04;;;;;;;6.93;4.15;;;10.60;96.40;;;;;;5112968;27;20345;-65
2022/02/23 10:29:34;;;;;;;12.20;3.03;;;10.60;96.50;;;;;;5112269;27;20223;-65
2022/02/23 10:32:06;;;;;;;8.80;3.38;;;10.60;96.60;;;;;;5115003;27;20234;-65
2022/02/23 10:34:39;;;;;;;8.02;3.50;;;10.70;96.50;;;;;;5116290;27;20563;-65
2022/02/23 10:37:08;;;;;;;12.82;3.15;;;10.70;96.50;;;;;;5116565;27;20222;-65
2022/02/23 10:39:37;;;;;;;10.25;3.58;;;10.70;96.30;;;;;;5116193;27;20226;-65
2022/02/23 10:42:06;;;;;;;11.70;3.92;;;10.70;95.70;;;;;;5116428;27;20707;-65
2022/02/23 10:44:33;;;;;;;12.32;3.90;;;10.70;95.10;;;;;;5116025;27;20237;-65
2022/02/23 10:47:01;;;;;;;16.05;3.63;;;10.70;95.30;;;;;;5116531;27;20268;-66
2022/02/23 10:49:28;;;;;;;10.63;3.33;;;10.70;95.30;;;;;;5115864;27;20227;-68
2022/02/23 10:52:06;;;;;;;6.75;2.83;;;10.80;95.30;;;;;;5116242;27;20677;-65
2022/02/23 10:54:34;;;;;;;8.77;3.75;;;10.80;95.00;;;;;;5115944;27;20223;-65
2022/02/23 10:57:01;;;;;;;8.98;3.20;;;10.80;95.10;;;;;;5116201;27;20523;-65
2022/02/23 10:59:28;;;;;;;6.22;3.33;;;10.90;94.80;;;;;;5115842;27;20306;-65
2022/02/23 11:01:55;;;;;;;8.93;3.33;;;10.90;94.70;;;;;;5115923;27;20683;-66
2022/02/23 11:04:22;;;;;;;9.30;3.75;;;10.90;94.60;;;;;;5115698;27;20227;-66
2022/02/23 11:06:51;;;;;;;11.65;3.97;;;11.00;94.70;;;;;;5116163;27;20219;-66
2022/02/23 11:09:20;;;;;;;12.60;3.63;;;11.00;94.90;;;;;;5116012;27;20234;-66
2022/02/23 11:11:50;;;;;;;8.98;3.28;;;11.10;94.70;;;;;;5115627;27;20219;-66
2022/02/23 11:14:20;;;;;;;8.50;2.92;;;11.10;94.80;;;;;;5115982;27;20589;-65
2022/02/23 11:16:49;;;;;;;7.05;3.90;;;11.20;94.80;;;;;;5115511;27;20215;-66
2022/02/23 11:19:18;;;;;;;14.30;5.20;;;11.30;94.90;;;;;;5115860;27;20227;-67
2022/02/23 11:21:47;;;;;;;12.45;5.68;;;11.30;94.80;;;;;;5115088;27;20302;-66
2022/02/23 11:24:14;;;;;;;8.95;3.22;;;11.30;94.60;;;;;;5115652;27;20239;-66
2022/02/23 11:26:43;;;;;;;10.32;4.70;;;11.40;94.00;;;;;;5113074;27;20534;-66
2022/02/23 11:29:19;;;;;;;8.80;3.45;;;11.40;93.50;;;;;;5112010;27;20214;-66
2022/02/23 11:31:50;;;;;;;11.90;3.75;;;11.40;93.40;;;;;;5098787;27;20228;-66
2022/02/23 11:34:19;;;;;;;12.25;3.30;;;11.40;93.20;;;;;;5099722;28;20256;-64
2022/02/23 11:36:49;;;;;;;9.20;3.58;;;11.30;93.20;;;;;;5105798;27;20280;-65
2022/02/23 11:39:18;;;;;;;9.35;2.92;;;11.30;93.30;;;;;;5116071;27;20669;-65
2022/02/23 11:41:49;;;;;;;6.25;2.83;;;11.30;93.50;;;;;;5094143;28;20258;-65
2022/02/23 11:44:18;;;;;;;6.68;3.08;;;11.40;93.70;;;;;;5133210;27;20667;-65
2022/02/23 11:47:13;;;;;;;9.02;4.05;;;11.40;93.80;;;;;;5135170;27;20661;-65
2022/02/23 11:49:51;;;;;;;5.35;2.72;;;11.40;93.60;;;;;;5091899;28;20238;-66
2022/02/23 11:52:20;;;;;;;12.55;3.47;;;11.40;93.00;;;;;;5102189;27;20241;-66
2022/02/23 11:54:55;;;;;;;14.07;3.78;;;11.40;92.90;;;;;;5095398;28;20238;-65
2022/02/23 11:57:50;;;;;;;10.23;3.85;;;11.50;92.80;;;;;;5100980;27;20215;-66
2022/02/23 12:00:20;;;;;;;13.10;3.17;;;11.40;92.60;;;;;;5106341;27;20220;-66
2022/02/23 12:03:02;;;;;;;17.45;3.28;;;11.50;92.70;;;;;;5106026;27;20218;-66
2022/02/23 12:05:41;;;;;;;8.05;2.88;;;11.50;92.60;;;;;;5107713;27;20218;-65
2022/02/23 12:08:40;;;;;;;12.13;3.75;;;11.50;92.80;;;;;;5101078;28;20306;-66
2022/02/23 12:11:41;;;;;;;13.52;4.47;;;11.50;93.10;;;;;;5111907;27;20224;-66
2022/02/23 12:14:09;;;;;;;10.90;4.38;;;11.50;93.10;;;;;;5101233;27;20234;-65
2022/02/23 12:16:47;;;;;;;8.75;3.05;;;11.50;93.00;;;;;;5106473;27;20220;-66
2022/02/23 12:19:15;;;;;;;6.40;2.45;;;11.60;93.50;;;;;;5101447;27;20239;-66
2022/02/23 12:21:44;;;;;;;9.77;2.60;;;11.60;93.20;;;;;;5105809;27;20236;-65
2022/02/23 12:24:15;;;;;;;8.10;3.05;;;11.70;93.20;;;;;;5110848;27;20290;-65
2022/02/23 12:26:42;;;;;;;7.18;2.75;;;11.70;93.10;;;;;;5108753;27;20370;-65
2022/02/23 12:29:12;;;;;;;4.18;2.40;;;11.80;93.10;;;;;;5103598;27;20241;-65
2022/02/23 12:31:44;;;;;;;6.00;2.88;;;11.80;92.90;;;;;;5103223;27;20219;-66
2022/02/23 12:34:14;;;;;;;11.23;3.03;;;11.90;92.80;;;;;;5108975;27;20302;-66
2022/02/23 12:36:46;;;;;;;9.90;2.72;;;11.90;92.70;;;;;;5113688;27;20219;-66
2022/02/23 12:39:14;;;;;;;6.78;2.47;;;12.00;92.70;;;;;;5112761;27;20223;-66
2022/02/23 12:41:42;;;;;;;6.03;3.58;;;12.10;92.70;;;;;;5113363;27;20235;-65
2022/02/23 12:44:12;;;;;;;6.13;2.70;;;12.10;92.20;;;;;;5112945;27;20239;-65
2022/02/23 12:46:42;;;;;;;7.45;2.75;;;12.20;92.10;;;;;;5113991;27;20223;-66
2022/02/23 12:49:09;;;;;;;5.38;2.40;;;12.20;91.50;;;;;;5114141;27;20675;-66
2022/02/23 12:51:37;;;;;;;6.88;2.70;;;12.20;91.20;;;;;;5113281;27;20230;-66
2022/02/23 12:54:06;;;;;;;5.75;2.75;;;12.30;91.20;;;;;;5113651;27;20287;-66
2022/02/23 12:56:36;;;;;;;9.10;2.80;;;12.40;90.90;;;;;;5112595;27;20215;-65
2022/02/23 12:59:05;;;;;;;5.15;2.70;;;12.40;91.00;;;;;;5113904;27;20223;-65
2022/02/23 13:01:36;;;;;;;4.70;2.53;;;12.50;91.10;;;;;;5113212;27;20245;-65
2022/02/23 13:04:06;;;;;;;5.50;3.30;;;12.50;91.10;;;;;;5113510;27;20242;-66
2022/02/23 13:06:35;;;;;;;12.90;3.70;;;12.50;91.10;;;;;;5113159;27;20231;-66
2022/02/23 13:09:05;;;;;;;8.75;3.50;;;12.60;90.90;;;;;;5113784;27;20581;-65
2022/02/23 13:11:34;;;;;;;9.60;2.72;;;12.50;90.90;;;;;;5113132;27;20223;-65